createdAt,value
2022-10-10T00:00:42.787Z,92.68
2022-10-10T00:01:42.780Z,92.88
2022-10-10T00:02:42.707Z,93.09
2022-10-10T00:03:42.707Z,93.19
2022-10-10T00:04:42.677Z,93.54
2022-10-10T00:05:42.669Z,93.75
2022-10-10T00:06:42.677Z,93.96
2022-10-10T00:07:42.648Z,93.96
2022-10-10T00:08:42.653Z,93.75
2022-10-10T00:09:42.620Z,93.79
2022-10-10T00:10:42.597Z,93.49
2022-10-10T00:11:42.590Z,93.38
2022-10-10T00:12:42.610Z,92.97
2022-10-10T00:13:42.559Z,92.35
2022-10-10T00:14:42.542Z,92.04
2022-10-10T00:15:46.785Z,92.04
2022-10-10T00:16:43.511Z,92.14
2022-10-10T00:17:42.504Z,92.35
2022-10-10T00:18:45.523Z,92.66
2022-10-10T00:19:45.494Z,92.86
2022-10-10T00:20:42.460Z,93.22
2022-10-10T00:21:42.456Z,93.43
2022-10-10T00:22:42.437Z,93.53
2022-10-10T00:23:42.464Z,93.84
2022-10-10T00:24:42.403Z,93.98
2022-10-10T00:25:42.394Z,94.19
2022-10-10T00:26:42.373Z,94.09
2022-10-10T00:27:42.366Z,94.19
2022-10-10T00:28:42.385Z,94.19
2022-10-10T00:29:42.363Z,94.19
2022-10-10T00:30:42.326Z,94.23
2022-10-10T00:31:42.312Z,94.23
2022-10-10T00:32:42.296Z,94.13
2022-10-10T00:33:42.326Z,94.13
2022-10-10T00:34:42.266Z,94.03
2022-10-10T00:35:42.255Z,93.93
2022-10-10T00:36:42.245Z,93.87
2022-10-10T00:37:42.225Z,93.66
2022-10-10T00:38:45.243Z,93.76
2022-10-10T00:39:45.220Z,93.76
2022-10-10T00:40:42.186Z,93.55
2022-10-10T00:41:42.176Z,93.66
2022-10-10T00:42:42.159Z,93.55
2022-10-10T00:43:42.169Z,93.55
2022-10-10T00:44:42.158Z,93.45
2022-10-10T00:45:42.119Z,93.55
2022-10-10T00:46:42.098Z,93.60
2022-10-10T00:47:42.097Z,93.60
2022-10-10T00:48:42.087Z,93.49
2022-10-10T00:49:42.088Z,93.49
2022-10-10T00:50:42.048Z,93.39
2022-10-10T00:51:42.041Z,93.39
2022-10-10T00:52:42.018Z,93.29
2022-10-10T00:53:42.010Z,93.23
2022-10-10T00:54:42.019Z,93.12
2022-10-10T00:55:41.990Z,93.02
2022-10-10T00:56:41.968Z,92.91
2022-10-10T00:57:41.958Z,92.81
2022-10-10T00:58:44.940Z,92.71
2022-10-10T00:59:44.970Z,92.71
2022-10-10T01:00:41.964Z,92.71
2022-10-10T01:01:41.931Z,92.71
2022-10-10T01:02:41.919Z,92.61
2022-10-10T01:03:41.875Z,92.50
2022-10-10T01:04:45.412Z,92.40
2022-10-10T01:05:41.854Z,92.30
2022-10-10T01:06:41.831Z,92.09
2022-10-10T01:07:41.821Z,91.99
2022-10-10T01:08:41.810Z,91.88
2022-10-10T01:09:41.790Z,91.88
2022-10-10T01:10:41.804Z,91.78
2022-10-10T01:11:41.795Z,91.78
2022-10-10T01:12:41.763Z,91.67
2022-10-10T01:13:41.776Z,91.78
2022-10-10T01:14:41.724Z,91.67
2022-10-10T01:15:41.705Z,91.78
2022-10-10T01:16:41.703Z,91.57
2022-10-10T01:17:41.683Z,91.67
2022-10-10T01:18:44.697Z,91.51
2022-10-10T01:19:44.666Z,91.51
2022-10-10T01:20:41.654Z,91.41
2022-10-10T01:21:41.625Z,91.41
2022-10-10T01:22:41.615Z,91.41
2022-10-10T01:23:41.644Z,91.41
2022-10-10T01:24:41.589Z,91.41
2022-10-10T01:25:41.575Z,91.30
2022-10-10T01:26:41.566Z,91.20
2022-10-10T01:27:41.547Z,90.99
2022-10-10T01:28:41.565Z,91.09
2022-10-10T01:29:41.548Z,90.99
2022-10-10T01:30:41.507Z,90.99
2022-10-10T01:31:41.489Z,90.78
2022-10-10T01:32:41.509Z,90.78
2022-10-10T01:33:41.472Z,90.78
2022-10-10T01:34:41.456Z,90.78
2022-10-10T01:35:41.486Z,90.78
2022-10-10T01:36:41.429Z,90.68
2022-10-10T01:37:41.411Z,90.68
2022-10-10T01:38:44.398Z,90.78
2022-10-10T01:39:44.392Z,90.68
2022-10-10T01:40:41.381Z,90.68
2022-10-10T01:41:41.381Z,90.68
2022-10-10T01:42:41.346Z,90.83
2022-10-10T01:43:41.341Z,90.93
2022-10-10T01:44:41.320Z,90.93
2022-10-10T01:45:41.330Z,90.83
2022-10-10T01:46:41.294Z,90.83
2022-10-10T01:47:41.274Z,90.83
2022-10-10T01:48:41.262Z,90.72
2022-10-10T01:49:41.256Z,90.41
2022-10-10T01:50:41.300Z,90.20
2022-10-10T01:51:41.222Z,89.89
2022-10-10T01:52:41.215Z,89.58
2022-10-10T01:53:41.192Z,89.38
2022-10-10T01:54:41.195Z,89.17
2022-10-10T01:55:41.163Z,88.92
2022-10-10T01:56:41.183Z,88.51
2022-10-10T01:57:41.147Z,87.57
2022-10-10T01:58:44.124Z,87.68
2022-10-10T01:59:44.154Z,87.78
2022-10-10T02:00:41.156Z,87.88
2022-10-10T02:01:41.115Z,87.88
2022-10-10T02:02:41.080Z,88.30
2022-10-10T02:03:41.054Z,88.51
2022-10-10T02:04:41.075Z,88.51
2022-10-10T02:05:41.025Z,88.51
2022-10-10T02:06:41.016Z,88.71
2022-10-10T02:07:41.008Z,88.71
2022-10-10T02:08:41.005Z,89.03
2022-10-10T02:09:40.998Z,89.03
2022-10-10T02:10:40.971Z,89.07
2022-10-10T02:11:40.948Z,89.07
2022-10-10T02:12:40.936Z,89.07
2022-10-10T02:13:40.925Z,89.28
2022-10-10T02:14:40.935Z,89.07
2022-10-10T02:15:40.916Z,89.28
2022-10-10T02:16:40.884Z,89.17
2022-10-10T02:17:40.867Z,88.96
2022-10-10T02:18:43.858Z,88.76
2022-10-10T02:19:43.850Z,88.86
2022-10-10T02:20:40.858Z,88.55
2022-10-10T02:21:40.808Z,88.24
2022-10-10T02:22:40.800Z,88.34
2022-10-10T02:23:40.808Z,88.45
2022-10-10T02:24:40.770Z,88.45
2022-10-10T02:25:40.751Z,88.65
2022-10-10T02:26:40.748Z,88.55
2022-10-10T02:27:40.725Z,88.65
2022-10-10T02:28:40.798Z,88.65
2022-10-10T02:29:40.700Z,88.65
2022-10-10T02:30:40.713Z,88.65
2022-10-10T02:31:40.668Z,88.65
2022-10-10T02:32:40.666Z,88.45
2022-10-10T02:33:40.643Z,88.34
2022-10-10T02:34:40.651Z,88.45
2022-10-10T02:35:40.629Z,88.45
2022-10-10T02:36:40.601Z,88.59
2022-10-10T02:37:40.593Z,88.28
2022-10-10T02:38:43.572Z,88.07
2022-10-10T02:39:43.604Z,88.03
2022-10-10T02:40:40.552Z,88.18
2022-10-10T02:41:40.527Z,88.07
2022-10-10T02:42:40.549Z,88.28
2022-10-10T02:43:40.505Z,88.18
2022-10-10T02:44:40.495Z,88.18
2022-10-10T02:45:40.483Z,88.07
2022-10-10T02:46:40.492Z,88.07
2022-10-10T02:47:40.459Z,88.07
2022-10-10T02:48:40.442Z,88.07
2022-10-10T02:49:40.431Z,88.07
2022-10-10T02:50:40.405Z,88.07
2022-10-10T02:51:40.414Z,87.87
2022-10-10T02:52:40.386Z,87.76
2022-10-10T02:53:40.370Z,87.55
2022-10-10T02:54:40.357Z,87.76
2022-10-10T02:55:40.337Z,87.76
2022-10-10T02:56:40.354Z,88.07
2022-10-10T02:57:40.306Z,88.07
2022-10-10T02:58:43.309Z,88.07
2022-10-10T02:59:43.317Z,88.39
2022-10-10T03:00:40.300Z,88.42
2022-10-10T03:01:40.307Z,88.53
2022-10-10T03:02:40.238Z,88.63
2022-10-10T03:03:40.227Z,88.63
2022-10-10T03:04:40.221Z,88.73
2022-10-10T03:05:40.199Z,88.42
2022-10-10T03:06:40.190Z,88.53
2022-10-10T03:07:40.205Z,88.63
2022-10-10T03:08:40.158Z,88.73
2022-10-10T03:09:40.148Z,88.84
2022-10-10T03:10:40.166Z,89.04
2022-10-10T03:11:40.118Z,88.94
2022-10-10T03:12:40.100Z,88.84
2022-10-10T03:13:40.092Z,88.73
2022-10-10T03:14:40.079Z,88.73
2022-10-10T03:15:40.085Z,88.63
2022-10-10T03:16:40.078Z,88.53
2022-10-10T03:17:40.043Z,88.63
2022-10-10T03:18:43.030Z,88.63
2022-10-10T03:19:43.021Z,88.63
2022-10-10T03:20:39.992Z,88.78
2022-10-10T03:21:40.022Z,88.78
2022-10-10T03:22:39.963Z,88.98
2022-10-10T03:23:39.956Z,88.98
2022-10-10T03:24:39.942Z,88.98
2022-10-10T03:25:39.922Z,88.98
2022-10-10T03:26:39.915Z,88.98
2022-10-10T03:27:39.932Z,88.98
2022-10-10T03:28:39.944Z,88.98
2022-10-10T03:29:39.896Z,88.98
2022-10-10T03:30:39.872Z,88.98
2022-10-10T03:31:39.876Z,88.88
2022-10-10T03:32:39.834Z,88.88
2022-10-10T03:33:39.813Z,88.78
2022-10-10T03:34:39.805Z,88.78
2022-10-10T03:35:39.794Z,88.67
2022-10-10T03:36:39.822Z,88.57
2022-10-10T03:37:39.764Z,88.57
2022-10-10T03:38:42.745Z,88.67
2022-10-10T03:39:42.754Z,88.36
2022-10-10T03:40:39.726Z,88.26
2022-10-10T03:41:39.705Z,88.05
2022-10-10T03:42:39.756Z,88.05
2022-10-10T03:43:39.691Z,88.05
2022-10-10T03:44:39.666Z,88.15
2022-10-10T03:45:39.646Z,88.15
2022-10-10T03:46:39.637Z,88.15
2022-10-10T03:47:39.617Z,88.26
2022-10-10T03:48:39.662Z,88.15
2022-10-10T03:49:39.588Z,88.46
2022-10-10T03:50:39.591Z,88.46
2022-10-10T03:51:39.566Z,88.51
2022-10-10T03:52:39.550Z,88.51
2022-10-10T03:53:39.537Z,88.61
2022-10-10T03:54:39.596Z,88.71
2022-10-10T03:55:39.508Z,88.71
2022-10-10T03:56:39.498Z,88.71
2022-10-10T03:57:39.479Z,88.71
2022-10-10T03:58:42.471Z,88.61
2022-10-10T03:59:42.530Z,88.51
2022-10-10T04:00:39.440Z,88.30
2022-10-10T04:01:39.425Z,88.09
2022-10-10T04:02:39.411Z,87.78
2022-10-10T04:03:39.390Z,87.63
2022-10-10T04:04:39.380Z,87.74
2022-10-10T04:05:39.422Z,87.32
2022-10-10T04:06:39.352Z,87.32
2022-10-10T04:07:39.332Z,87.32
2022-10-10T04:08:39.321Z,87.32
2022-10-10T04:09:39.312Z,87.43
2022-10-10T04:10:39.300Z,87.63
2022-10-10T04:11:39.330Z,87.74
2022-10-10T04:12:39.273Z,87.84
2022-10-10T04:13:39.255Z,87.88
2022-10-10T04:14:39.246Z,88.09
2022-10-10T04:15:39.228Z,87.78
2022-10-10T04:16:39.212Z,87.78
2022-10-10T04:17:39.223Z,87.68
2022-10-10T04:18:42.184Z,87.68
2022-10-10T04:19:42.181Z,87.78
2022-10-10T04:20:39.163Z,87.99
2022-10-10T04:21:39.164Z,87.88
2022-10-10T04:22:39.125Z,87.78
2022-10-10T04:23:39.111Z,87.99
2022-10-10T04:24:39.151Z,87.88
2022-10-10T04:25:39.075Z,87.99
2022-10-10T04:26:39.065Z,88.09
2022-10-10T04:27:39.056Z,87.57
2022-10-10T04:28:39.106Z,87.57
2022-10-10T04:29:39.026Z,87.57
2022-10-10T04:30:39.067Z,87.68
2022-10-10T04:31:38.995Z,87.68
2022-10-10T04:32:38.990Z,87.57
2022-10-10T04:33:38.969Z,87.57
2022-10-10T04:34:38.957Z,87.68
2022-10-10T04:35:38.939Z,87.57
2022-10-10T04:36:38.978Z,87.57
2022-10-10T04:37:38.908Z,87.68
2022-10-10T04:38:41.898Z,87.78
2022-10-10T04:39:41.896Z,87.78
2022-10-10T04:40:38.868Z,87.92
2022-10-10T04:41:38.863Z,88.02
2022-10-10T04:42:38.890Z,88.02
2022-10-10T04:43:38.832Z,88.02
2022-10-10T04:44:38.821Z,87.92
2022-10-10T04:45:38.799Z,87.82
2022-10-10T04:46:38.790Z,87.40
2022-10-10T04:47:38.771Z,87.51
2022-10-10T04:48:38.791Z,87.30
2022-10-10T04:49:38.762Z,87.16
2022-10-10T04:50:38.730Z,87.26
2022-10-10T04:51:38.710Z,87.26
2022-10-10T04:52:38.702Z,87.37
2022-10-10T04:53:38.741Z,87.40
2022-10-10T04:54:38.673Z,87.40
2022-10-10T04:55:38.653Z,87.51
2022-10-10T04:56:38.644Z,87.61
2022-10-10T04:57:38.638Z,87.61
2022-10-10T04:58:41.684Z,87.71
2022-10-10T04:59:41.613Z,87.71
2022-10-10T05:00:38.593Z,87.51
2022-10-10T05:01:38.687Z,87.30
2022-10-10T05:02:38.564Z,87.30
2022-10-10T05:03:38.551Z,87.30
2022-10-10T05:04:38.595Z,87.19
2022-10-10T05:05:38.523Z,87.30
2022-10-10T05:06:38.513Z,87.19
2022-10-10T05:07:38.494Z,87.19
2022-10-10T05:08:38.486Z,87.30
2022-10-10T05:09:38.481Z,87.19
2022-10-10T05:10:38.495Z,87.19
2022-10-10T05:11:38.442Z,87.30
2022-10-10T05:12:38.431Z,87.19
2022-10-10T05:13:38.426Z,87.09
2022-10-10T05:14:38.406Z,87.09
2022-10-10T05:15:38.450Z,87.19
2022-10-10T05:16:38.377Z,87.19
2022-10-10T05:17:38.368Z,87.30
2022-10-10T05:18:41.346Z,87.24
2022-10-10T05:19:41.348Z,87.19
2022-10-10T05:20:38.330Z,86.99
2022-10-10T05:21:38.327Z,86.99
2022-10-10T05:22:38.307Z,86.99
2022-10-10T05:23:38.278Z,86.99
2022-10-10T05:24:38.269Z,87.09
2022-10-10T05:25:38.331Z,87.09
2022-10-10T05:26:42.935Z,87.13
2022-10-10T05:27:39.228Z,87.13
2022-10-10T05:28:38.291Z,87.13
2022-10-10T05:29:38.219Z,86.78
2022-10-10T05:30:38.189Z,86.88
2022-10-10T05:31:38.188Z,86.88
2022-10-10T05:32:38.189Z,86.88
2022-10-10T05:33:38.161Z,86.78
2022-10-10T05:34:38.139Z,86.68
2022-10-10T05:35:38.119Z,86.78
2022-10-10T05:36:38.110Z,86.78
2022-10-10T05:37:38.150Z,86.78
2022-10-10T05:38:41.080Z,86.78
2022-10-10T05:39:41.085Z,86.68
2022-10-10T05:40:38.062Z,86.68
2022-10-10T05:41:38.048Z,86.68
2022-10-10T05:42:38.041Z,86.57
2022-10-10T05:43:38.072Z,86.57
2022-10-10T05:44:38.001Z,86.47
2022-10-10T05:45:38.003Z,86.36
2022-10-10T05:46:37.972Z,86.26
2022-10-10T05:47:37.965Z,86.22
2022-10-10T05:48:37.954Z,86.33
2022-10-10T05:51:05.128Z,86.12
2022-10-10T05:51:16.031Z,86.12
2022-10-10T05:52:09.870Z,86.12
2022-10-10T05:53:09.856Z,86.12
2022-10-10T05:54:09.869Z,86.12
2022-10-10T05:55:09.834Z,86.22
2022-10-10T05:56:09.880Z,86.33
2022-10-10T05:57:13.960Z,86.33
2022-10-10T05:58:10.790Z,86.33
2022-10-10T05:59:12.778Z,86.43
2022-10-10T06:00:12.799Z,86.43
2022-10-10T06:01:09.748Z,86.43
2022-10-10T06:02:09.831Z,86.43
2022-10-10T06:03:09.709Z,86.39
2022-10-10T06:04:09.709Z,86.08
2022-10-10T06:05:09.698Z,85.97
2022-10-10T06:06:09.660Z,85.97
2022-10-10T06:07:09.673Z,86.08
2022-10-10T06:08:12.066Z,85.94
2022-10-10T06:09:09.660Z,86.04
2022-10-10T06:10:09.642Z,85.94
2022-10-10T06:11:09.599Z,85.94
2022-10-10T06:12:09.606Z,85.83
2022-10-10T06:13:09.589Z,85.73
2022-10-10T06:14:09.600Z,85.83
2022-10-10T06:15:09.557Z,85.83
2022-10-10T06:16:09.560Z,85.94
2022-10-10T06:17:09.530Z,86.00
2022-10-10T06:18:09.509Z,86.00
2022-10-10T06:19:14.907Z,86.00
2022-10-10T06:20:12.504Z,86.00
2022-10-10T06:21:09.473Z,86.00
2022-10-10T06:22:09.510Z,86.00
2022-10-10T06:23:09.465Z,86.10
2022-10-10T06:24:09.445Z,86.10
2022-10-10T06:25:23.993Z,86.17
2022-10-10T06:26:10.452Z,86.17
2022-10-10T06:27:09.402Z,86.17
2022-10-10T06:28:09.467Z,86.17
2022-10-10T06:29:09.383Z,86.27
2022-10-10T06:30:09.374Z,85.86
2022-10-10T06:31:09.385Z,85.96
2022-10-10T06:32:09.334Z,85.82
2022-10-10T06:33:09.353Z,85.71
2022-10-10T06:34:09.323Z,85.50
2022-10-10T06:35:09.294Z,85.61
2022-10-10T06:36:09.303Z,85.61
2022-10-10T06:37:09.365Z,85.61
2022-10-10T06:38:09.314Z,85.61
2022-10-10T06:39:12.650Z,85.61
2022-10-10T06:40:12.372Z,85.68
2022-10-10T06:41:09.266Z,85.68
2022-10-10T06:42:09.216Z,85.47
2022-10-10T06:43:09.284Z,85.68
2022-10-10T06:44:09.206Z,85.47
2022-10-10T06:45:09.213Z,85.57
2022-10-10T06:46:09.137Z,85.57
2022-10-10T06:47:09.153Z,85.47
2022-10-10T06:48:09.122Z,85.57
2022-10-10T06:49:09.147Z,85.53
2022-10-10T06:50:09.298Z,85.53
2022-10-10T06:51:09.118Z,85.53
2022-10-10T06:52:09.077Z,85.53
2022-10-10T06:53:09.173Z,85.63
2022-10-10T06:54:09.048Z,85.53
2022-10-10T06:55:09.052Z,85.53
2022-10-10T06:56:09.028Z,85.63
2022-10-10T06:57:09.008Z,85.63
2022-10-10T06:58:09.014Z,85.74
2022-10-10T06:59:12.000Z,85.70
2022-10-10T07:00:11.959Z,85.70
2022-10-10T07:01:08.970Z,85.91
2022-10-10T07:02:08.929Z,85.70
2022-10-10T07:03:08.919Z,85.60
2022-10-10T07:04:08.941Z,85.70
2022-10-10T07:05:08.898Z,85.80
2022-10-10T07:06:08.860Z,85.80
2022-10-10T07:07:08.853Z,85.80
2022-10-10T07:08:08.841Z,85.80
2022-10-10T07:09:08.821Z,85.70
2022-10-10T07:10:08.851Z,85.70
2022-10-10T07:11:08.821Z,85.76
2022-10-10T07:12:08.811Z,85.66
2022-10-10T07:13:08.790Z,85.76
2022-10-10T07:14:08.755Z,85.76
2022-10-10T07:15:08.752Z,85.97
2022-10-10T07:16:08.781Z,85.66
2022-10-10T07:17:08.724Z,85.86
2022-10-10T07:18:08.703Z,85.66
2022-10-10T07:19:11.693Z,85.62
2022-10-10T07:20:11.694Z,85.62
2022-10-10T07:21:08.663Z,85.72
2022-10-10T07:22:08.670Z,85.41
2022-10-10T07:23:08.634Z,85.62
2022-10-10T07:24:08.620Z,85.41
2022-10-10T07:25:08.608Z,85.52
2022-10-10T07:26:08.603Z,85.72
2022-10-10T07:27:09.006Z,85.37
2022-10-10T07:28:08.598Z,85.47
2022-10-10T07:29:08.562Z,85.68
2022-10-10T07:30:08.536Z,85.37
2022-10-10T07:31:08.526Z,85.37
2022-10-10T07:32:08.556Z,85.37
2022-10-10T07:33:08.506Z,85.33
2022-10-10T07:34:08.487Z,85.33
2022-10-10T07:35:08.468Z,85.44
2022-10-10T07:36:08.453Z,85.44
2022-10-10T07:37:08.447Z,85.75
2022-10-10T07:38:08.457Z,85.64
2022-10-10T07:39:16.333Z,85.50
2022-10-10T07:40:12.433Z,85.39
2022-10-10T07:41:08.407Z,85.60
2022-10-10T07:42:08.388Z,85.19
2022-10-10T07:43:08.437Z,85.19
2022-10-10T07:44:08.348Z,85.30
2022-10-10T07:45:08.341Z,85.46
2022-10-10T07:46:11.389Z,85.25
2022-10-10T07:47:08.311Z,85.46
2022-10-10T07:48:08.289Z,85.46
2022-10-10T07:49:08.335Z,85.22
2022-10-10T07:50:08.260Z,85.42
2022-10-10T07:51:08.248Z,85.63
2022-10-10T07:52:08.230Z,85.42
2022-10-10T07:53:08.222Z,85.31
2022-10-10T07:54:08.203Z,85.17
2022-10-10T07:55:08.230Z,85.28
2022-10-10T07:56:08.195Z,85.28
2022-10-10T07:57:08.173Z,85.34
2022-10-10T07:58:08.153Z,85.34
2022-10-10T07:59:11.143Z,85.44
2022-10-10T08:00:11.202Z,85.44
2022-10-10T08:01:08.194Z,85.34
2022-10-10T08:02:08.144Z,85.41
2022-10-10T08:03:11.740Z,85.41
2022-10-10T08:04:08.091Z,85.51
2022-10-10T08:05:08.079Z,85.71
2022-10-10T08:06:08.068Z,85.68
2022-10-10T08:07:08.024Z,85.36
2022-10-10T08:08:08.021Z,85.57
2022-10-10T08:09:07.996Z,85.57
2022-10-10T08:10:08.007Z,85.43
2022-10-10T08:11:08.043Z,85.74
2022-10-10T08:12:07.968Z,85.94
2022-10-10T08:13:07.945Z,86.15
2022-10-10T08:14:07.945Z,86.11
2022-10-10T08:15:07.991Z,86.32
2022-10-10T08:16:07.961Z,86.62
2022-10-10T08:17:07.957Z,86.52
2022-10-10T08:18:07.867Z,86.89
2022-10-10T08:19:10.912Z,86.68
2022-10-10T08:20:10.871Z,86.89
2022-10-10T08:21:07.844Z,87.26
2022-10-10T08:22:07.828Z,87.88
2022-10-10T08:23:07.883Z,87.98
2022-10-10T08:24:07.788Z,88.08
2022-10-10T08:25:07.796Z,88.39
2022-10-10T08:26:07.769Z,88.70
2022-10-10T08:27:07.759Z,88.59
2022-10-10T08:28:07.795Z,88.56
2022-10-10T08:29:07.796Z,88.86
2022-10-10T08:30:07.736Z,88.56
2022-10-10T08:31:07.710Z,88.96
2022-10-10T08:32:07.695Z,89.03
2022-10-10T08:33:07.679Z,89.23
2022-10-10T08:34:07.652Z,89.23
2022-10-10T08:35:07.711Z,89.23
2022-10-10T08:36:07.696Z,89.54
2022-10-10T08:37:07.622Z,90.26
2022-10-10T08:38:07.613Z,90.56
2022-10-10T08:39:10.592Z,90.83
2022-10-10T08:40:10.620Z,91.03
2022-10-10T08:41:07.552Z,91.35
2022-10-10T08:42:07.540Z,91.65
2022-10-10T08:43:07.552Z,91.44
2022-10-10T08:44:07.510Z,92.02
2022-10-10T08:45:07.499Z,91.71
2022-10-10T08:46:07.484Z,91.82
2022-10-10T08:47:07.501Z,91.82
2022-10-10T08:48:07.483Z,92.02
2022-10-10T08:49:11.716Z,92.49
2022-10-10T08:50:08.465Z,93.20
2022-10-10T08:51:07.422Z,93.30
2022-10-10T08:52:07.464Z,93.00
2022-10-10T08:53:07.436Z,92.79
2022-10-10T08:54:07.395Z,93.26
2022-10-10T08:55:07.386Z,93.26
2022-10-10T08:56:07.374Z,93.57
2022-10-10T08:57:07.358Z,93.67
2022-10-10T08:58:07.358Z,93.93
2022-10-10T08:59:10.306Z,94.14
2022-10-10T09:00:10.323Z,94.04
2022-10-10T09:01:08.146Z,94.04
2022-10-10T09:02:19.383Z,94.20
2022-10-10T09:03:08.297Z,94.10
2022-10-10T09:04:07.251Z,94.51
2022-10-10T09:05:07.358Z,94.71
2022-10-10T09:06:07.239Z,94.97
2022-10-10T09:07:07.219Z,95.28
2022-10-10T09:08:07.222Z,95.28
2022-10-10T09:09:07.200Z,95.28
2022-10-10T09:10:07.171Z,95.34
2022-10-10T09:11:07.224Z,95.23
2022-10-10T09:12:07.172Z,95.44
2022-10-10T09:13:07.171Z,95.34
2022-10-10T09:14:07.142Z,95.29
2022-10-10T09:15:07.111Z,95.19
2022-10-10T09:16:07.097Z,95.19
2022-10-10T09:17:07.122Z,95.09
2022-10-10T09:18:07.053Z,95.19
2022-10-10T09:19:12.483Z,95.15
2022-10-10T09:20:10.062Z,95.25
2022-10-10T09:21:07.022Z,95.25
2022-10-10T09:22:07.002Z,95.04
2022-10-10T09:23:07.014Z,95.35
2022-10-10T09:24:07.053Z,95.31
2022-10-10T09:25:06.984Z,95.41
2022-10-10T09:26:11.090Z,95.20
2022-10-10T09:27:06.984Z,95.20
2022-10-10T09:28:06.975Z,95.31
2022-10-10T09:29:06.915Z,95.41
2022-10-10T09:30:06.915Z,95.16
2022-10-10T09:31:06.898Z,95.16
2022-10-10T09:32:06.868Z,95.16
2022-10-10T09:33:06.891Z,95.12
2022-10-10T09:34:06.897Z,95.12
2022-10-10T09:35:06.823Z,95.12
2022-10-10T09:36:06.805Z,95.07
2022-10-10T09:37:06.827Z,94.87
2022-10-10T09:38:06.796Z,94.97
2022-10-10T09:39:09.776Z,94.87
2022-10-10T09:42:14.150Z,94.62
2022-10-10T09:43:14.139Z,94.57
2022-10-10T09:44:14.120Z,94.68
2022-10-10T09:45:14.234Z,94.57
2022-10-10T09:46:14.083Z,94.23
2022-10-10T09:47:14.064Z,93.92
2022-10-10T09:48:14.082Z,94.12
2022-10-10T09:49:14.054Z,94.08
2022-10-10T09:50:14.063Z,93.98
2022-10-10T09:51:14.057Z,94.13
2022-10-10T09:52:13.995Z,93.22
2022-10-10T09:53:13.976Z,93.32
2022-10-10T09:54:14.013Z,92.71
2022-10-10T09:55:13.976Z,92.61
2022-10-10T09:56:13.947Z,92.77
2022-10-10T09:57:13.953Z,93.18
2022-10-10T09:58:13.917Z,93.28
2022-10-10T09:59:13.940Z,93.48
2022-10-10T10:00:13.898Z,93.18
2022-10-10T10:01:17.046Z,92.67
2022-10-10T10:02:16.913Z,92.02
2022-10-10T10:03:13.866Z,91.91
2022-10-10T10:04:29.697Z,91.61
2022-10-10T10:05:14.819Z,92.02
2022-10-10T10:06:13.872Z,91.51
2022-10-10T10:07:13.846Z,91.51
2022-10-10T10:08:13.879Z,91.30
2022-10-10T10:09:13.781Z,91.56
2022-10-10T10:10:13.769Z,91.56
2022-10-10T10:11:13.821Z,91.56
2022-10-10T10:12:13.781Z,91.06
2022-10-10T10:13:13.724Z,91.06
2022-10-10T10:14:13.792Z,91.36
2022-10-10T10:15:13.692Z,92.07
2022-10-10T10:16:13.693Z,92.48
2022-10-10T10:17:13.643Z,91.67
2022-10-10T10:18:13.675Z,91.73
2022-10-10T10:19:13.643Z,91.73
2022-10-10T10:20:13.743Z,91.73
2022-10-10T10:21:16.614Z,90.75
2022-10-10T10:22:19.020Z,90.55
2022-10-10T10:23:13.590Z,90.75
2022-10-10T10:24:13.545Z,91.47
2022-10-10T10:25:13.587Z,91.16
2022-10-10T10:26:13.596Z,90.66
2022-10-10T10:27:13.526Z,91.06
2022-10-10T10:28:13.589Z,91.10
2022-10-10T10:29:13.507Z,90.90
2022-10-10T10:30:13.511Z,90.96
2022-10-10T10:31:13.487Z,91.36
2022-10-10T10:32:13.473Z,91.77
2022-10-10T10:33:13.438Z,91.97
2022-10-10T10:34:13.528Z,92.13
2022-10-10T10:35:13.449Z,91.52
2022-10-10T10:36:13.409Z,91.22
2022-10-10T10:37:15.050Z,90.71
2022-10-10T10:38:13.390Z,91.02
2022-10-10T10:39:13.359Z,91.48
2022-10-10T10:40:13.431Z,91.48
2022-10-10T10:41:16.370Z,91.68
2022-10-10T10:42:16.353Z,90.47
2022-10-10T10:43:13.311Z,90.67
2022-10-10T10:44:13.302Z,91.24
2022-10-10T10:45:13.276Z,91.34
2022-10-10T10:46:13.303Z,90.93
2022-10-10T10:47:13.253Z,90.89
2022-10-10T10:48:13.262Z,90.79
2022-10-10T10:49:13.245Z,89.37
2022-10-10T10:50:13.213Z,88.96
2022-10-10T10:51:13.255Z,89.32
2022-10-10T10:52:13.180Z,88.92
2022-10-10T10:53:13.164Z,88.72
2022-10-10T10:54:13.186Z,89.02
2022-10-10T10:55:13.151Z,88.51
2022-10-10T10:56:13.155Z,88.31
2022-10-10T10:57:31.810Z,88.21
2022-10-10T11:00:26.521Z,87.77
2022-10-10T11:01:27.889Z,88.17
2022-10-10T11:02:31.296Z,87.87
2022-10-10T11:03:35.214Z,87.26
2022-10-10T11:05:16.594Z,87.26
2022-10-10T11:05:20.604Z,87.05
2022-10-10T11:06:14.063Z,86.51
2022-10-10T11:07:19.088Z,87.02
2022-10-10T11:08:13.976Z,87.93
2022-10-10T11:09:31.265Z,87.52
2022-10-10T11:10:14.014Z,87.62
2022-10-10T11:11:13.004Z,86.67
2022-10-10T11:12:12.921Z,87.58
2022-10-10T11:13:12.911Z,88.70
2022-10-10T11:14:12.902Z,87.08
2022-10-10T11:15:12.864Z,86.57
2022-10-10T11:16:30.312Z,86.43
2022-10-10T11:17:13.844Z,87.24
2022-10-10T11:18:12.915Z,87.24
2022-10-10T11:19:12.804Z,87.13
2022-10-10T11:20:12.886Z,86.83
2022-10-10T11:21:15.848Z,87.64
2022-10-10T11:22:15.806Z,86.53
2022-10-10T11:23:12.776Z,86.22
2022-10-10T11:24:12.798Z,87.13
2022-10-10T11:25:12.777Z,87.38
2022-10-10T11:26:12.746Z,87.79
2022-10-10T11:27:12.737Z,87.99
2022-10-10T11:28:12.798Z,87.88
2022-10-10T11:29:12.808Z,87.58
2022-10-10T11:30:12.790Z,88.45
2022-10-10T11:31:12.711Z,88.55
2022-10-10T11:32:12.725Z,87.04
2022-10-10T11:33:12.651Z,86.43
2022-10-10T11:34:12.660Z,86.63
2022-10-10T11:35:12.611Z,85.93
2022-10-10T11:36:12.601Z,85.62
2022-10-10T11:37:12.568Z,85.82
2022-10-10T11:38:12.552Z,86.22
2022-10-10T11:39:15.499Z,87.54
2022-10-10T11:40:12.564Z,88.01
2022-10-10T11:41:15.564Z,88.61
2022-10-10T11:42:15.514Z,86.49
2022-10-10T11:43:12.493Z,85.78
2022-10-10T11:44:12.561Z,84.97
2022-10-10T11:45:12.495Z,84.53
2022-10-10T11:46:12.464Z,84.63
2022-10-10T11:47:12.475Z,85.34
2022-10-10T11:48:12.432Z,84.39
2022-10-10T11:49:12.428Z,84.99
2022-10-10T11:50:12.496Z,84.89
2022-10-10T11:51:16.056Z,83.28
2022-10-10T11:52:32.494Z,83.38
2022-10-10T11:53:13.366Z,84.09
2022-10-10T11:54:12.367Z,83.18
2022-10-10T11:55:12.343Z,83.18
2022-10-10T11:56:12.356Z,83.24
2022-10-10T11:57:13.018Z,83.14
2022-10-10T11:58:12.278Z,82.13
2022-10-10T11:59:12.308Z,80.82
2022-10-10T12:00:12.250Z,79.85
2022-10-10T12:01:15.289Z,80.21
2022-10-10T12:02:15.255Z,80.41
2022-10-10T12:03:12.247Z,77.49
2022-10-10T12:04:12.331Z,78.56
2022-10-10T12:05:12.202Z,79.87
2022-10-10T12:06:12.203Z,79.97
2022-10-10T12:07:12.184Z,79.67
2022-10-10T12:08:16.807Z,81.18
2022-10-10T12:09:13.170Z,80.38
2022-10-10T12:10:12.263Z,79.87
2022-10-10T12:11:12.115Z,78.66
2022-10-10T12:12:12.123Z,78.16
2022-10-10T12:13:12.092Z,78.96
2022-10-10T12:14:12.126Z,80.27
2022-10-10T12:15:12.068Z,80.07
2022-10-10T12:16:12.045Z,81.08
2022-10-10T12:17:12.048Z,82.39
2022-10-10T12:18:11.996Z,81.79
2022-10-10T12:19:12.029Z,83.40
2022-10-10T12:20:11.986Z,80.98
2022-10-10T12:21:14.970Z,80.78
2022-10-10T12:22:18.777Z,80.78
2022-10-10T12:23:11.939Z,80.98
2022-10-10T12:24:11.950Z,80.27
2022-10-10T12:25:11.912Z,80.47
2022-10-10T12:26:11.902Z,77.99
2022-10-10T12:27:11.890Z,78.30
2022-10-10T12:28:11.902Z,79.71
2022-10-10T12:29:11.901Z,81.22
2022-10-10T12:30:11.831Z,81.82
2022-10-10T12:31:11.835Z,79.21
2022-10-10T12:32:11.821Z,78.59
2022-10-10T12:33:11.801Z,79.36
2022-10-10T12:34:11.803Z,79.77
2022-10-10T12:35:11.805Z,79.67
2022-10-10T12:36:11.764Z,80.78
2022-10-10T12:37:11.734Z,80.27
2022-10-10T12:38:11.729Z,81.89
2022-10-10T12:39:11.707Z,81.59
2022-10-10T12:40:11.798Z,81.79
2022-10-10T12:41:14.686Z,78.56
2022-10-10T12:42:14.675Z,79.47
2022-10-10T12:43:11.656Z,81.48
2022-10-10T12:44:11.628Z,80.07
2022-10-10T12:45:11.620Z,79.97
2022-10-10T12:46:11.637Z,81.28
2022-10-10T12:47:11.608Z,79.27
2022-10-10T12:48:11.619Z,77.89
2022-10-10T12:49:11.678Z,80.68
2022-10-10T12:50:11.539Z,80.18
2022-10-10T12:51:11.549Z,81.48
2022-10-10T12:52:11.555Z,80.38
2022-10-10T12:53:11.511Z,79.36
2022-10-10T12:54:11.523Z,79.57
2022-10-10T12:55:11.492Z,80.38
2022-10-10T12:56:11.480Z,79.87
2022-10-10T12:57:11.451Z,79.57